createdAt,value
2019-04-05T00:00:03.781Z,90.655518
2019-04-05T00:00:15.754Z,90.551758
2019-04-05T00:00:27.617Z,90.551758
2019-04-05T00:00:39.477Z,90.551758
2019-04-05T00:00:51.419Z,90.447998
2019-04-05T00:01:03.289Z,90.447998
2019-04-05T00:01:15.143Z,90.350342
2019-04-05T00:01:27.007Z,90.350342
2019-04-05T00:01:38.855Z,90.350342
2019-04-05T00:01:50.830Z,90.350342
2019-04-05T00:02:02.703Z,90.350342
2019-04-05T00:02:14.588Z,90.350342
2019-04-05T00:02:26.535Z,90.350342
2019-04-05T00:02:38.426Z,90.350342
2019-04-05T00:02:50.287Z,90.350342
2019-04-05T00:03:02.246Z,90.447998
2019-04-05T00:03:14.102Z,90.447998
2019-04-05T00:03:26.013Z,90.447998
2019-04-05T00:03:37.865Z,90.551758
2019-04-05T00:03:49.729Z,90.551758
2019-04-05T00:04:01.667Z,90.551758
2019-04-05T00:04:13.567Z,90.551758
2019-04-05T00:04:25.420Z,90.551758
2019-04-05T00:04:37.267Z,90.551758
2019-04-05T00:04:49.117Z,90.447998
2019-04-05T00:05:01.086Z,90.447998
2019-04-05T00:05:12.947Z,90.447998
2019-04-05T00:05:24.827Z,90.447998
2019-04-05T00:05:37.741Z,90.447998
2019-04-05T00:05:49.649Z,90.447998
2019-04-05T00:06:01.529Z,90.447998
2019-04-05T00:06:13.447Z,90.447998
2019-04-05T00:06:25.325Z,90.447998
2019-04-05T00:06:37.191Z,90.350342
2019-04-05T00:06:49.126Z,90.350342
2019-04-05T00:07:01.015Z,90.350342
2019-04-05T00:07:12.886Z,90.246582
2019-04-05T00:07:24.763Z,90.246582
2019-04-05T00:07:36.718Z,90.246582
2019-04-05T00:07:48.661Z,90.246582
2019-04-05T00:08:00.518Z,90.246582
2019-04-05T00:08:12.368Z,90.246582
2019-04-05T00:08:24.319Z,90.246582
2019-04-05T00:08:36.214Z,90.350342
2019-04-05T00:08:48.088Z,90.350342
2019-04-05T00:09:00.104Z,90.350342
2019-04-05T00:09:12.053Z,90.350342
2019-04-05T00:09:23.970Z,90.350342
2019-04-05T00:09:35.837Z,90.447998
2019-04-05T00:09:47.707Z,90.447998
2019-04-05T00:09:59.586Z,90.447998
2019-04-05T00:10:11.577Z,90.447998
2019-04-05T00:10:23.430Z,90.447998
2019-04-05T00:10:35.325Z,90.447998
2019-04-05T00:10:47.254Z,90.350342
2019-04-05T00:10:59.133Z,90.350342
2019-04-05T00:11:10.986Z,90.350342
2019-04-05T00:11:22.854Z,90.350342
2019-04-05T00:11:34.736Z,90.350342
2019-04-05T00:11:46.668Z,90.246582
2019-04-05T00:11:58.534Z,90.246582
2019-04-05T00:12:10.441Z,90.246582
2019-04-05T00:12:22.485Z,90.142822
2019-04-05T00:12:34.366Z,90.142822
2019-04-05T00:12:46.199Z,90.142822
2019-04-05T00:12:58.118Z,90.246582
2019-04-05T00:13:10.966Z,90.350342
2019-04-05T00:13:22.823Z,90.350342
2019-04-05T00:13:34.875Z,90.447998
2019-04-05T00:13:46.820Z,90.447998
2019-04-05T00:13:58.656Z,90.447998
2019-04-05T00:14:10.611Z,90.447998
2019-04-05T00:14:22.507Z,90.447998
2019-04-05T00:14:34.446Z,90.447998
2019-04-05T00:14:46.296Z,90.447998
2019-04-05T00:14:58.317Z,90.350342
2019-04-05T00:15:15.422Z,90.350342
2019-04-05T00:15:22.952Z,90.350342
2019-04-05T00:15:37.883Z,90.447998
2019-04-05T00:15:46.854Z,90.447998
2019-04-05T00:15:58.695Z,90.447998
2019-04-05T00:16:10.591Z,90.447998
2019-04-05T00:16:22.568Z,90.447998
2019-04-05T00:16:34.493Z,90.447998
2019-04-05T00:16:46.350Z,90.447998
2019-04-05T00:16:58.254Z,90.447998
2019-04-05T00:17:11.194Z,90.447998
2019-04-05T00:17:23.119Z,90.551758
2019-04-05T00:17:35.023Z,90.551758
2019-04-05T00:17:46.871Z,90.551758
2019-04-05T00:17:58.735Z,90.551758
2019-04-05T00:18:10.586Z,90.551758
2019-04-05T00:18:22.554Z,90.655518
2019-04-05T00:18:34.416Z,90.655518
2019-04-05T00:18:46.263Z,90.759277
2019-04-05T00:18:58.200Z,90.759277
2019-04-05T00:19:10.134Z,90.759277
2019-04-05T00:19:21.985Z,90.863037
2019-04-05T00:19:33.886Z,90.966797
2019-04-05T00:19:45.755Z,91.070557
2019-04-05T00:19:57.701Z,91.070557
2019-04-05T00:20:09.563Z,91.174316
2019-04-05T00:20:21.431Z,91.174316
2019-04-05T00:20:33.379Z,91.278076
2019-04-05T00:20:45.313Z,91.278076
2019-04-05T00:20:57.186Z,91.278076
2019-04-05T00:21:09.032Z,91.381836
2019-04-05T00:21:20.881Z,91.381836
2019-04-05T00:21:32.875Z,91.479492
2019-04-05T00:21:44.744Z,91.583252
2019-04-05T00:21:56.594Z,91.583252
2019-04-05T00:22:08.602Z,91.583252
2019-04-05T00:22:20.526Z,91.687012
2019-04-05T00:22:32.391Z,91.687012
2019-04-05T00:22:44.231Z,91.687012
2019-04-05T00:22:56.216Z,91.790771
2019-04-05T00:23:08.167Z,91.894531
2019-04-05T00:23:20.021Z,91.894531
2019-04-05T00:23:31.929Z,91.998291
2019-04-05T00:23:43.822Z,91.998291
2019-04-05T00:23:55.778Z,91.998291
2019-04-05T00:24:07.673Z,91.998291
2019-04-05T00:24:19.536Z,92.102051
2019-04-05T00:24:31.512Z,92.102051
2019-04-05T00:24:43.400Z,92.102051
2019-04-05T00:24:55.322Z,92.102051
2019-04-05T00:25:07.195Z,92.205811
2019-04-05T00:25:19.054Z,92.30957
2019-04-05T00:25:31.027Z,92.41333
2019-04-05T00:25:42.943Z,92.41333
2019-04-05T00:25:54.803Z,92.510986
2019-04-05T00:26:06.737Z,92.510986
2019-04-05T00:26:18.756Z,92.510986
2019-04-05T00:26:30.669Z,92.614746
2019-04-05T00:26:42.534Z,92.614746
2019-04-05T00:26:54.451Z,92.718506
2019-04-05T00:27:06.312Z,92.822266
2019-04-05T00:27:18.294Z,92.822266
2019-04-05T00:27:30.144Z,92.926025
2019-04-05T00:27:41.994Z,92.926025
2019-04-05T00:27:53.961Z,92.926025
2019-04-05T00:28:05.827Z,93.029785
2019-04-05T00:28:17.713Z,93.029785
2019-04-05T00:28:29.648Z,92.926025
2019-04-05T00:28:42.491Z,92.926025
2019-04-05T00:28:55.333Z,92.926025
2019-04-05T00:29:07.189Z,93.029785
2019-04-05T00:29:19.127Z,93.029785
2019-04-05T00:29:31.027Z,93.029785
2019-04-05T00:29:42.886Z,92.926025
2019-04-05T00:29:54.726Z,92.926025
2019-04-05T00:30:06.578Z,92.926025
2019-04-05T00:30:18.584Z,92.926025
2019-04-05T00:30:30.422Z,92.926025
2019-04-05T00:30:42.278Z,93.029785
2019-04-05T00:30:54.209Z,93.029785
2019-04-05T00:31:06.149Z,93.07251
2019-04-05T00:31:18.010Z,93.07251
2019-04-05T00:31:29.931Z,93.07251
2019-04-05T00:31:41.765Z,93.07251
2019-04-05T00:31:53.712Z,93.07251
2019-04-05T00:32:05.555Z,93.07251
2019-04-05T00:32:17.409Z,93.17627
2019-04-05T00:32:29.382Z,93.17627
2019-04-05T00:32:41.253Z,93.17627
2019-04-05T00:32:54.135Z,93.280029
2019-04-05T00:33:05.992Z,93.280029
2019-04-05T00:33:17.866Z,93.280029
2019-04-05T00:33:29.734Z,93.383789
2019-04-05T00:33:41.684Z,93.383789
2019-04-05T00:33:53.612Z,93.383789
2019-04-05T00:34:05.560Z,93.383789
2019-04-05T00:34:17.535Z,93.487549
2019-04-05T00:34:29.472Z,93.487549
2019-04-05T00:34:41.383Z,93.487549
2019-04-05T00:34:53.216Z,93.487549
2019-04-05T00:35:05.059Z,93.487549
2019-04-05T00:35:16.935Z,93.487549
2019-04-05T00:35:28.806Z,93.487549
2019-04-05T00:35:40.648Z,93.487549
2019-04-05T00:35:52.598Z,93.487549
2019-04-05T00:36:04.488Z,93.487549
2019-04-05T00:36:16.422Z,93.487549
2019-04-05T00:36:28.270Z,93.585205
2019-04-05T00:36:40.125Z,93.585205
2019-04-05T00:36:52.086Z,93.585205
2019-04-05T00:37:03.999Z,93.585205
2019-04-05T00:37:15.850Z,93.688965
2019-04-05T00:37:27.759Z,93.688965
2019-04-05T00:37:39.672Z,93.688965
2019-04-05T00:37:51.616Z,93.688965
2019-04-05T00:38:03.484Z,93.688965
2019-04-05T00:38:15.346Z,93.792725
2019-04-05T00:38:27.236Z,93.688965
2019-04-05T00:38:39.202Z,93.688965
2019-04-05T00:38:51.051Z,93.688965
2019-04-05T00:39:03.038Z,93.688965
2019-04-05T00:39:14.972Z,93.688965
2019-04-05T00:39:26.853Z,93.688965
2019-04-05T00:39:38.710Z,93.688965
2019-04-05T00:39:50.556Z,93.792725
2019-04-05T00:40:02.453Z,93.792725
2019-04-05T00:40:14.401Z,93.792725
2019-04-05T00:40:26.234Z,93.792725
2019-04-05T00:40:38.170Z,93.792725
2019-04-05T00:40:50.173Z,93.792725
2019-04-05T00:41:02.077Z,93.792725
2019-04-05T00:41:13.924Z,93.792725
2019-04-05T00:41:25.874Z,93.896484
2019-04-05T00:41:38.706Z,93.896484
2019-04-05T00:41:50.556Z,93.896484
2019-04-05T00:42:02.592Z,93.896484
2019-04-05T00:42:14.571Z,93.896484
2019-04-05T00:42:26.405Z,93.896484
2019-04-05T00:42:39.322Z,94.000244
2019-04-05T00:42:51.193Z,94.000244
2019-04-05T00:43:03.098Z,94.000244
2019-04-05T00:43:15.014Z,94.000244
2019-04-05T00:43:26.880Z,94.000244
2019-04-05T00:43:38.746Z,94.000244
2019-04-05T00:43:50.631Z,94.000244
2019-04-05T00:44:02.733Z,94.000244
2019-04-05T00:44:14.582Z,94.000244
2019-04-05T00:44:26.426Z,94.000244
2019-04-05T00:44:38.350Z,94.000244
2019-04-05T00:44:50.301Z,94.000244
2019-04-05T00:45:02.220Z,94.000244
2019-04-05T00:45:14.085Z,94.000244
2019-04-05T00:45:28.232Z,94.104004
2019-04-05T00:45:38.811Z,94.104004
2019-04-05T00:45:50.754Z,94.104004
2019-04-05T00:46:02.706Z,94.104004
2019-04-05T00:46:14.547Z,94.104004
2019-04-05T00:46:26.418Z,94.104004
2019-04-05T00:46:38.272Z,94.104004
2019-04-05T00:46:50.235Z,94.104004
2019-04-05T00:47:02.103Z,94.207764
2019-04-05T00:47:13.943Z,94.104004
2019-04-05T00:47:25.867Z,94.207764
2019-04-05T00:47:37.731Z,94.207764
2019-04-05T00:47:49.577Z,94.207764
2019-04-05T00:48:01.421Z,94.311523
2019-04-05T00:48:13.286Z,94.311523
2019-04-05T00:48:25.220Z,94.311523
2019-04-05T00:48:37.073Z,94.311523
2019-04-05T00:48:48.949Z,94.415283
2019-04-05T00:49:00.998Z,94.311523
2019-04-05T00:49:12.880Z,94.311523
2019-04-05T00:49:24.724Z,94.311523
2019-04-05T00:49:36.546Z,94.311523
2019-04-05T00:49:48.399Z,94.415283
2019-04-05T00:50:00.348Z,94.415283
2019-04-05T00:50:12.189Z,94.311523
2019-04-05T00:50:24.063Z,94.311523
2019-04-05T00:50:35.970Z,94.311523
2019-04-05T00:50:47.917Z,94.311523
2019-04-05T00:50:59.763Z,94.311523
2019-04-05T00:51:11.588Z,94.311523
2019-04-05T00:51:23.480Z,94.311523
2019-04-05T00:51:35.403Z,94.311523
2019-04-05T00:51:47.249Z,94.207764
2019-04-05T00:51:59.184Z,94.311523
2019-04-05T00:52:11.056Z,94.311523
2019-04-05T00:52:22.984Z,94.311523
2019-04-05T00:52:34.833Z,94.207764
2019-04-05T00:52:46.683Z,94.207764
2019-04-05T00:52:58.637Z,94.207764
2019-04-05T00:53:10.633Z,94.207764
2019-04-05T00:53:22.497Z,94.311523
2019-04-05T00:53:34.368Z,94.311523
2019-04-05T00:53:46.368Z,94.311523
2019-04-05T00:53:58.278Z,94.311523
2019-04-05T00:54:10.140Z,94.311523
2019-04-05T00:54:22.078Z,94.311523
2019-04-05T00:54:33.924Z,94.311523
2019-04-05T00:54:45.867Z,94.311523
2019-04-05T00:54:57.716Z,94.311523
2019-04-05T00:55:09.591Z,94.311523
2019-04-05T00:55:21.538Z,94.311523
2019-04-05T00:55:33.395Z,94.311523
2019-04-05T00:55:45.230Z,94.311523
2019-04-05T00:55:57.084Z,94.311523
2019-04-05T00:56:08.950Z,94.311523
2019-04-05T00:56:20.898Z,94.311523
2019-04-05T00:56:32.753Z,94.311523
2019-04-05T00:56:44.657Z,94.207764
2019-04-05T00:56:56.618Z,94.207764
2019-04-05T00:57:08.543Z,94.207764
2019-04-05T00:57:20.396Z,94.207764
2019-04-05T00:57:32.237Z,94.207764
2019-04-05T00:57:44.078Z,94.207764
2019-04-05T00:57:56.043Z,94.207764
2019-04-05T00:58:07.888Z,94.207764
2019-04-05T00:58:20.791Z,94.207764
2019-04-05T00:58:32.680Z,94.207764
2019-04-05T00:58:44.651Z,94.207764
2019-04-05T00:58:56.553Z,94.207764
2019-04-05T00:59:08.436Z,94.207764
2019-04-05T00:59:20.352Z,94.207764
2019-04-05T00:59:32.199Z,94.207764
2019-04-05T00:59:44.172Z,94.207764
2019-04-05T00:59:56.075Z,94.207764
2019-04-05T01:00:07.915Z,94.207764
2019-04-05T01:00:19.864Z,94.207764
2019-04-05T01:00:31.769Z,94.207764
2019-04-05T01:00:43.694Z,94.207764
2019-04-05T01:00:55.604Z,94.207764
2019-04-05T01:01:07.455Z,94.207764
2019-04-05T01:01:19.399Z,94.207764
2019-04-05T01:01:31.330Z,94.207764
2019-04-05T01:01:43.187Z,94.165039
2019-04-05T01:01:55.140Z,94.207764
2019-04-05T01:02:07.032Z,94.207764
2019-04-05T01:02:18.954Z,94.165039
2019-04-05T01:02:30.790Z,94.207764
2019-04-05T01:02:42.628Z,94.165039
2019-04-05T01:02:54.615Z,94.165039
2019-04-05T01:03:06.553Z,94.207764
2019-04-05T01:03:18.385Z,94.061279
2019-04-05T01:03:30.300Z,94.104004
2019-04-05T01:03:42.283Z,94.104004
2019-04-05T01:03:54.189Z,94.104004
2019-04-05T01:04:06.029Z,94.104004
2019-04-05T01:04:17.945Z,94.000244
2019-04-05T01:04:29.781Z,94.000244
2019-04-05T01:04:42.772Z,94.000244
2019-04-05T01:04:54.761Z,94.000244
2019-04-05T01:05:06.680Z,94.000244
2019-04-05T01:05:18.543Z,94.000244
2019-04-05T01:05:30.446Z,94.000244
2019-04-05T01:05:42.443Z,94.000244
2019-04-05T01:05:54.384Z,94.000244
2019-04-05T01:06:06.216Z,94.000244
2019-04-05T01:06:18.165Z,94.000244
2019-04-05T01:06:30.020Z,94.000244
2019-04-05T01:06:41.947Z,94.000244
2019-04-05T01:06:53.794Z,94.000244
2019-04-05T01:07:05.690Z,94.000244
2019-04-05T01:07:17.644Z,94.000244
2019-04-05T01:07:29.568Z,94.000244
2019-04-05T01:07:41.411Z,94.104004
2019-04-05T01:07:53.243Z,94.104004
2019-04-05T01:08:05.106Z,94.104004
2019-04-05T01:08:17.024Z,94.104004
2019-04-05T01:08:28.873Z,94.104004
2019-04-05T01:08:40.785Z,94.104004
2019-04-05T01:08:52.812Z,94.000244
2019-04-05T01:09:04.672Z,94.000244
2019-04-05T01:09:16.509Z,94.000244
2019-04-05T01:09:28.352Z,94.000244
2019-04-05T01:09:40.233Z,94.000244
2019-04-05T01:09:52.182Z,94.000244
2019-04-05T01:10:04.021Z,94.000244
2019-04-05T01:10:15.931Z,94.000244
2019-04-05T01:10:27.906Z,94.000244
2019-04-05T01:10:39.824Z,94.000244
2019-04-05T01:10:51.668Z,94.000244
2019-04-05T01:11:03.512Z,94.061279
2019-04-05T01:11:15.386Z,94.061279
2019-04-05T01:11:27.289Z,94.061279
2019-04-05T01:11:39.139Z,94.061279
2019-04-05T01:11:51.055Z,94.061279
2019-04-05T01:12:02.934Z,94.061279
2019-04-05T01:12:15.769Z,94.061279
2019-04-05T01:12:27.660Z,94.061279
2019-04-05T01:12:39.518Z,94.061279
2019-04-05T01:12:51.467Z,94.061279
2019-04-05T01:13:03.352Z,94.061279
2019-04-05T01:13:15.211Z,94.061279
2019-04-05T01:13:27.055Z,93.95752
2019-04-05T01:13:38.953Z,93.95752
2019-04-05T01:13:50.735Z,93.95752
2019-04-05T01:14:02.704Z,93.95752
2019-04-05T01:14:14.545Z,93.85376
2019-04-05T01:14:26.379Z,93.85376
2019-04-05T01:14:38.353Z,93.85376
2019-04-05T01:14:50.286Z,93.85376
2019-04-05T01:15:02.128Z,93.85376
2019-04-05T01:15:14.027Z,93.85376
2019-04-05T01:15:25.866Z,93.75
2019-04-05T01:15:40.932Z,93.75
2019-04-05T01:15:50.648Z,93.75
2019-04-05T01:16:02.505Z,93.75
2019-04-05T01:16:14.351Z,93.75
2019-04-05T01:16:26.251Z,93.75
2019-04-05T01:16:38.694Z,93.75
2019-04-05T01:16:50.717Z,93.75
2019-04-05T01:17:02.575Z,93.75
2019-04-05T01:17:24.344Z,93.75
2019-04-05T01:17:27.216Z,93.75
2019-04-05T01:17:39.061Z,93.792725
2019-04-05T01:17:50.986Z,93.792725
2019-04-05T01:18:02.929Z,93.75
2019-04-05T01:18:14.781Z,93.75
2019-04-05T01:18:26.693Z,93.75
2019-04-05T01:18:38.771Z,93.85376
2019-04-05T01:18:50.642Z,93.85376
2019-04-05T01:19:03.987Z,93.85376
2019-04-05T01:19:14.407Z,93.85376
2019-04-05T01:19:26.252Z,93.85376
2019-04-05T01:19:38.268Z,93.85376
2019-04-05T01:19:50.125Z,93.95752
2019-04-05T01:20:01.970Z,93.95752
2019-04-05T01:20:13.912Z,93.95752
2019-04-05T01:20:25.796Z,93.95752
2019-04-05T01:20:37.655Z,93.95752
2019-04-05T01:20:49.508Z,93.95752
2019-04-05T01:21:01.345Z,93.95752
2019-04-05T01:21:13.246Z,93.95752
2019-04-05T01:21:25.098Z,94.000244
2019-04-05T01:21:36.980Z,93.896484
2019-04-05T01:21:48.922Z,93.896484
2019-04-05T01:22:00.813Z,93.896484
2019-04-05T01:22:12.665Z,93.896484
2019-04-05T01:22:24.505Z,93.896484
2019-04-05T01:22:36.371Z,93.896484
2019-04-05T01:22:48.326Z,93.896484
2019-04-05T01:23:00.174Z,93.896484
2019-04-05T01:23:12.012Z,93.896484
2019-04-05T01:23:23.916Z,93.896484
2019-04-05T01:23:35.853Z,93.896484
2019-04-05T01:23:48.788Z,94.000244
2019-04-05T01:24:00.653Z,94.000244
2019-04-05T01:24:12.508Z,94.000244
2019-04-05T01:24:24.461Z,94.000244
2019-04-05T01:24:36.378Z,94.000244
2019-04-05T01:24:48.233Z,94.000244
2019-04-05T01:25:00.080Z,94.000244
2019-04-05T01:25:12.043Z,94.000244
2019-04-05T01:25:24.010Z,94.000244
2019-04-05T01:25:35.938Z,94.104004
2019-04-05T01:25:47.831Z,94.104004
2019-04-05T01:25:59.685Z,94.104004
2019-04-05T01:26:11.618Z,94.104004
2019-04-05T01:26:23.507Z,94.061279
2019-04-05T01:26:35.343Z,94.000244
2019-04-05T01:26:47.326Z,94.000244
2019-04-05T01:26:59.223Z,94.000244
2019-04-05T01:27:11.130Z,94.000244
2019-04-05T01:27:22.970Z,94.000244
2019-04-05T01:27:34.822Z,93.95752
2019-04-05T01:27:48.415Z,94.000244
2019-04-05T01:27:58.702Z,93.95752
2019-04-05T01:28:10.548Z,94.104004
2019-04-05T01:28:22.485Z,94.061279
2019-04-05T01:28:34.415Z,94.061279
2019-04-05T01:28:46.350Z,94.061279
2019-04-05T01:28:58.201Z,94.104004
2019-04-05T01:29:10.142Z,94.061279
2019-04-05T01:29:22.036Z,94.061279
2019-04-05T01:29:33.975Z,94.165039
2019-04-05T01:29:45.834Z,94.165039
2019-04-05T01:29:57.773Z,94.165039
2019-04-05T01:30:09.830Z,94.165039
2019-04-05T01:30:21.742Z,94.268799
2019-04-05T01:30:33.574Z,94.268799
2019-04-05T01:30:45.425Z,94.268799
2019-04-05T01:30:57.285Z,94.268799
2019-04-05T01:31:09.267Z,94.268799
2019-04-05T01:31:21.120Z,94.311523
2019-04-05T01:31:32.975Z,94.268799
2019-04-05T01:31:45.003Z,94.311523
2019-04-05T01:31:56.920Z,94.311523
2019-04-05T01:32:08.753Z,94.372559
2019-04-05T01:32:20.613Z,94.415283
2019-04-05T01:32:32.457Z,94.372559
2019-04-05T01:32:44.477Z,94.372559
2019-04-05T01:32:56.311Z,94.415283
2019-04-05T01:33:08.171Z,94.470215
2019-04-05T01:33:20.102Z,94.519043
2019-04-05T01:33:31.967Z,94.519043
2019-04-05T01:33:43.801Z,94.470215
2019-04-05T01:33:55.651Z,94.519043
2019-04-05T01:34:08.481Z,94.519043
2019-04-05T01:34:20.411Z,94.519043
2019-04-05T01:34:32.340Z,94.519043
2019-04-05T01:34:44.213Z,94.622803
2019-04-05T01:34:56.090Z,94.622803
2019-04-05T01:35:08.202Z,94.622803
2019-04-05T01:35:20.225Z,94.573975
2019-04-05T01:35:32.132Z,94.622803
2019-04-05T01:35:43.977Z,94.622803
2019-04-05T01:35:55.809Z,94.573975
2019-04-05T01:36:07.673Z,94.622803
2019-04-05T01:36:19.635Z,94.573975
2019-04-05T01:36:31.483Z,94.573975
2019-04-05T01:36:43.426Z,94.573975
2019-04-05T01:36:55.338Z,94.622803
2019-04-05T01:37:07.231Z,94.573975
2019-04-05T01:37:19.076Z,94.622803
2019-04-05T01:37:30.929Z,94.573975
2019-04-05T01:37:42.840Z,94.470215
2019-04-05T01:37:54.773Z,94.470215
2019-04-05T01:38:06.613Z,94.470215
2019-04-05T01:38:18.529Z,94.415283
2019-04-05T01:38:30.595Z,94.415283
2019-04-05T01:38:42.480Z,94.372559
2019-04-05T01:38:54.335Z,94.372559
2019-04-05T01:39:06.270Z,94.372559
2019-04-05T01:39:18.115Z,94.372559
2019-04-05T01:39:30.127Z,94.372559
2019-04-05T01:39:41.975Z,94.372559
2019-04-05T01:39:53.827Z,94.372559
2019-04-05T01:40:05.736Z,94.372559
2019-04-05T01:40:17.611Z,94.372559
2019-04-05T01:40:29.489Z,94.372559
2019-04-05T01:40:41.329Z,94.470215
2019-04-05T01:40:53.172Z,94.470215
2019-04-05T01:41:05.201Z,94.470215
2019-04-05T01:41:17.052Z,94.470215
2019-04-05T01:41:28.897Z,94.470215
2019-04-05T01:41:40.929Z,94.470215
2019-04-05T01:41:52.786Z,94.470215
2019-04-05T01:42:04.628Z,94.470215
2019-04-05T01:42:16.470Z,94.470215
2019-04-05T01:42:28.374Z,94.519043
2019-04-05T01:42:40.335Z,94.470215
2019-04-05T01:42:52.174Z,94.470215
2019-04-05T01:43:04.007Z,94.470215
2019-04-05T01:43:15.884Z,94.470215
2019-04-05T01:43:27.784Z,94.573975
2019-04-05T01:43:39.629Z,94.573975
2019-04-05T01:43:51.474Z,94.573975
2019-04-05T01:44:03.381Z,94.622803
2019-04-05T01:44:15.339Z,94.622803
2019-04-05T01:44:27.152Z,94.622803
2019-04-05T01:44:39.030Z,94.622803
2019-04-05T01:44:51.977Z,94.720459
2019-04-05T01:45:02.782Z,94.720459
2019-04-05T01:45:14.632Z,94.720459
2019-04-05T01:45:26.511Z,94.720459
2019-04-05T01:45:38.518Z,94.720459
2019-04-05T01:45:53.786Z,94.720459
2019-04-05T01:46:03.338Z,94.720459
2019-04-05T01:46:15.143Z,94.824219
2019-04-05T01:46:26.986Z,94.824219
2019-04-05T01:46:38.845Z,94.824219
2019-04-05T01:46:50.781Z,94.824219
2019-04-05T01:47:02.659Z,94.824219
2019-04-05T01:47:14.502Z,94.927979
2019-04-05T01:47:26.398Z,94.927979
2019-04-05T01:47:38.294Z,94.927979
2019-04-05T01:47:50.140Z,94.927979
2019-04-05T01:48:02.052Z,94.824219
2019-04-05T01:48:13.901Z,94.824219
2019-04-05T01:48:25.850Z,94.824219
2019-04-05T01:48:37.718Z,94.927979
2019-04-05T01:48:49.583Z,94.927979
2019-04-05T01:49:01.509Z,94.927979
2019-04-05T01:49:13.453Z,94.927979
2019-04-05T01:49:25.228Z,94.927979
2019-04-05T01:49:37.080Z,94.927979
2019-04-05T01:49:48.939Z,95.031738
2019-04-05T01:50:00.867Z,95.031738
2019-04-05T01:50:12.720Z,95.031738
2019-04-05T01:50:24.670Z,95.031738
2019-04-05T01:50:36.690Z,95.031738
2019-04-05T01:50:48.562Z,95.031738
2019-04-05T01:51:00.403Z,95.031738
2019-04-05T01:51:12.252Z,95.031738
2019-04-05T01:51:24.115Z,95.031738
2019-04-05T01:51:36.013Z,94.927979
2019-04-05T01:51:47.867Z,94.927979
2019-04-05T01:51:59.824Z,94.927979
2019-04-05T01:52:11.706Z,94.927979
2019-04-05T01:52:23.617Z,94.927979
2019-04-05T01:52:35.477Z,94.927979
2019-04-05T01:52:47.315Z,94.927979
2019-04-05T01:52:59.265Z,94.927979
2019-04-05T01:53:11.260Z,94.927979
2019-04-05T01:53:23.109Z,94.927979
2019-04-05T01:53:34.982Z,94.927979
2019-04-05T01:53:46.894Z,95.031738
2019-04-05T01:53:58.782Z,95.031738
2019-04-05T01:54:10.622Z,94.927979
2019-04-05T01:54:22.464Z,94.927979
2019-04-05T01:54:34.371Z,94.927979
2019-04-05T01:54:46.309Z,94.927979
2019-04-05T01:54:58.154Z,94.927979
2019-04-05T01:55:10.107Z,94.927979
2019-04-05T01:55:22.111Z,94.927979
2019-04-05T01:55:34.015Z,94.927979
2019-04-05T01:55:45.859Z,95.031738
2019-04-05T01:55:57.768Z,95.031738
2019-04-05T01:56:09.608Z,95.031738
2019-04-05T01:56:21.777Z,95.031738
2019-04-05T01:56:33.634Z,95.031738
2019-04-05T01:56:45.472Z,95.031738
2019-04-05T01:56:58.377Z,95.031738
2019-04-05T01:57:10.330Z,95.031738
2019-04-05T01:57:22.280Z,95.031738
2019-04-05T01:57:34.178Z,95.031738
2019-04-05T01:57:46.036Z,95.031738
2019-04-05T01:57:57.952Z,95.135498
2019-04-05T01:58:09.796Z,95.135498
2019-04-05T01:58:21.702Z,95.135498
2019-04-05T01:58:33.549Z,95.031738
2019-04-05T01:58:45.452Z,95.031738
2019-04-05T01:58:57.392Z,95.031738
2019-04-05T01:59:09.303Z,95.031738
2019-04-05T01:59:21.142Z,95.031738
2019-04-05T01:59:33.017Z,95.031738
2019-04-05T01:59:44.876Z,95.031738
2019-04-05T01:59:56.822Z,95.031738
2019-04-05T02:00:08.696Z,95.031738
2019-04-05T02:00:20.600Z,95.031738
2019-04-05T02:00:32.538Z,95.135498
2019-04-05T02:00:44.421Z,95.135498
2019-04-05T02:00:56.280Z,95.135498
2019-04-05T02:01:08.128Z,95.135498
2019-04-05T02:01:20.059Z,95.135498
2019-04-05T02:01:32.002Z,95.239258
2019-04-05T02:01:43.848Z,95.239258
2019-04-05T02:01:55.779Z,95.239258
2019-04-05T02:02:07.700Z,95.239258
2019-04-05T02:02:19.596Z,95.239258
2019-04-05T02:02:31.438Z,95.239258
2019-04-05T02:02:43.318Z,95.239258
2019-04-05T02:02:55.200Z,95.239258
2019-04-05T02:03:07.168Z,95.239258
2019-04-05T02:03:19.271Z,95.343018
2019-04-05T02:03:31.126Z,95.343018
2019-04-05T02:03:43.083Z,95.343018
2019-04-05T02:03:54.934Z,95.343018
2019-04-05T02:04:06.793Z,95.343018
2019-04-05T02:04:18.664Z,95.343018
2019-04-05T02:04:30.510Z,95.343018
2019-04-05T02:04:42.497Z,95.343018
2019-04-05T02:04:55.361Z,95.343018
2019-04-05T02:05:07.262Z,95.343018
2019-04-05T02:05:19.110Z,95.343018
2019-04-05T02:05:31.038Z,95.343018
2019-04-05T02:05:42.928Z,95.343018
2019-04-05T02:05:54.889Z,95.343018
2019-04-05T02:06:06.772Z,95.446777
2019-04-05T02:06:18.607Z,95.446777
2019-04-05T02:06:30.638Z,95.446777
2019-04-05T02:06:42.569Z,95.446777
2019-04-05T02:06:54.443Z,95.446777
2019-04-05T02:07:06.419Z,95.446777
2019-04-05T02:07:18.381Z,95.446777
2019-04-05T02:07:30.262Z,95.446777
2019-04-05T02:07:42.119Z,95.446777
2019-04-05T02:07:54.059Z,95.446777
2019-04-05T02:08:05.967Z,95.446777
2019-04-05T02:08:18.032Z,95.446777
2019-04-05T02:08:29.877Z,95.446777
2019-04-05T02:08:41.707Z,95.446777
2019-04-05T02:08:53.667Z,95.550537
2019-04-05T02:09:05.597Z,95.550537
2019-04-05T02:09:17.463Z,95.550537
2019-04-05T02:09:29.352Z,95.446777
2019-04-05T02:09:41.228Z,95.446777
2019-04-05T02:09:53.150Z,95.446777
2019-04-05T02:10:05.013Z,95.446777
2019-04-05T02:10:16.881Z,95.446777
2019-04-05T02:10:28.911Z,95.446777
2019-04-05T02:10:40.834Z,95.446777
2019-04-05T02:10:52.687Z,95.446777
2019-04-05T02:11:04.522Z,95.446777
2019-04-05T02:11:16.506Z,95.446777
2019-04-05T02:11:28.433Z,95.446777
2019-04-05T02:11:40.353Z,95.446777
2019-04-05T02:11:52.279Z,95.446777
2019-04-05T02:12:04.119Z,95.446777
2019-04-05T02:12:16.071Z,95.446777
2019-04-05T02:12:27.972Z,95.446777
2019-04-05T02:12:39.831Z,95.446777
2019-04-05T02:12:51.807Z,95.446777
2019-04-05T02:13:03.694Z,95.446777
2019-04-05T02:13:15.551Z,95.446777
2019-04-05T02:13:27.427Z,95.446777
2019-04-05T02:13:39.271Z,95.446777
2019-04-05T02:13:51.163Z,95.446777
2019-04-05T02:14:03.041Z,95.446777
2019-04-05T02:14:14.900Z,95.446777
2019-04-05T02:14:26.760Z,95.446777
2019-04-05T02:14:38.742Z,95.550537
2019-04-05T02:14:50.662Z,95.550537
2019-04-05T02:15:02.505Z,95.550537
2019-04-05T02:15:15.345Z,95.550537
2019-04-05T02:15:27.228Z,95.550537
2019-04-05T02:15:39.190Z,95.550537
2019-04-05T02:15:51.063Z,95.550537
2019-04-05T02:16:06.394Z,95.550537
2019-04-05T02:16:15.886Z,95.550537
2019-04-05T02:16:27.788Z,95.654297